sensor_id;sensor_type;location;lat;lon;timestamp;pressure;altitude;pressure_sealevel;temperature;humidity
8575;BME280;4325;42.520;27.448;2023-11-19T00:02:01;100057.72;;;3.10;100.00
8575;BME280;4325;42.520;27.448;2023-11-19T00:04:28;100055.38;;;3.14;100.00
8575;BME280;4325;42.520;27.448;2023-11-19T00:06:57;100093.06;;;3.20;100.00
8575;BME280;4325;42.520;27.448;2023-11-19T00:09:28;100104.72;;;3.21;100.00
8575;BME280;4325;42.520;27.448;2023-11-19T00:11:55;100104.22;;;3.24;100.00
8575;BME280;4325;42.520;27.448;2023-11-19T00:14:23;100093.75;;;3.27;100.00
8575;BME280;4325;42.520;27.448;2023-11-19T00:16:51;100111.97;;;3.32;100.00
8575;BME280;4325;42.520;27.448;2023-11-19T00:19:19;100114.44;;;3.33;100.00
8575;BME280;4325;42.520;27.448;2023-11-19T00:21:46;100141.84;;;3.37;100.00
8575;BME280;4325;42.520;27.448;2023-11-19T00:24:15;100149.38;;;3.35;100.00
8575;BME280;4325;42.520;27.448;2023-11-19T00:26:43;100140.19;;;3.36;100.00
8575;BME280;4325;42.520;27.448;2023-11-19T00:29:10;100145.13;;;3.39;100.00
8575;BME280;4325;42.520;27.448;2023-11-19T00:31:39;100162.53;;;3.43;100.00
8575;BME280;4325;42.520;27.448;2023-11-19T00:34:06;100161.22;;;3.46;100.00
8575;BME280;4325;42.520;27.448;2023-11-19T00:36:33;100159.59;;;3.45;100.00
8575;BME280;4325;42.520;27.448;2023-11-19T00:38:59;100175.34;;;3.48;100.00
8575;BME280;4325;42.520;27.448;2023-11-19T00:41:28;100169.69;;;3.49;100.00
8575;BME280;4325;42.520;27.448;2023-11-19T00:43:55;100163.22;;;3.50;100.00
8575;BME280;4325;42.520;27.448;2023-11-19T00:46:22;100180.41;;;3.44;100.00
8575;BME280;4325;42.520;27.448;2023-11-19T00:48:49;100199.72;;;3.48;100.00
8575;BME280;4325;42.520;27.448;2023-11-19T00:51:15;100176.16;;;3.48;100.00
8575;BME280;4325;42.520;27.448;2023-11-19T00:53:41;100231.94;;;3.49;100.00
8575;BME280;4325;42.520;27.448;2023-11-19T00:56:10;100226.63;;;3.54;100.00
8575;BME280;4325;42.520;27.448;2023-11-19T00:58:39;100236.88;;;3.52;100.00
8575;BME280;4325;42.520;27.448;2023-11-19T01:01:06;100235.00;;;3.53;100.00
8575;BME280;4325;42.520;27.448;2023-11-19T01:03:33;100255.25;;;3.50;100.00
8575;BME280;4325;42.520;27.448;2023-11-19T01:06:00;100236.88;;;3.52;100.00
8575;BME280;4325;42.520;27.448;2023-11-19T01:08:28;100262.75;;;3.48;100.00
8575;BME280;4325;42.520;27.448;2023-11-19T01:10:55;100260.16;;;3.53;100.00
8575;BME280;4325;42.520;27.448;2023-11-19T01:13:22;100279.09;;;3.53;100.00
8575;BME280;4325;42.520;27.448;2023-11-19T01:15:51;100283.00;;;3.57;100.00
8575;BME280;4325;42.520;27.448;2023-11-19T01:18:18;100278.31;;;3.53;100.00
8575;BME280;4325;42.520;27.448;2023-11-19T01:20:45;100265.09;;;3.56;100.00
8575;BME280;4325;42.520;27.448;2023-11-19T01:23:12;100288.41;;;3.57;100.00
8575;BME280;4325;42.520;27.448;2023-11-19T01:25:39;100264.53;;;3.54;100.00
8575;BME280;4325;42.520;27.448;2023-11-19T01:28:06;100308.88;;;3.53;100.00
8575;BME280;4325;42.520;27.448;2023-11-19T01:30:32;100312.88;;;3.51;100.00
8575;BME280;4325;42.520;27.448;2023-11-19T01:33:01;100333.09;;;3.48;100.00
8575;BME280;4325;42.520;27.448;2023-11-19T01:35:28;100343.47;;;3.51;100.00
8575;BME280;4325;42.520;27.448;2023-11-19T01:37:55;100338.06;;;3.51;100.00
8575;BME280;4325;42.520;27.448;2023-11-19T01:40:21;100346.75;;;3.53;100.00
8575;BME280;4325;42.520;27.448;2023-11-19T01:42:48;100343.84;;;3.55;100.00
8575;BME280;4325;42.520;27.448;2023-11-19T01:45:22;100355.97;;;3.52;100.00
8575;BME280;4325;42.520;27.448;2023-11-19T01:47:53;100354.88;;;3.53;100.00
8575;BME280;4325;42.520;27.448;2023-11-19T01:50:22;100364.19;;;3.57;100.00
8575;BME280;4325;42.520;27.448;2023-11-19T01:52:51;100356.28;;;3.56;100.00
8575;BME280;4325;42.520;27.448;2023-11-19T01:55:19;100363.13;;;3.58;100.00
8575;BME280;4325;42.520;27.448;2023-11-19T01:57:47;100313.81;;;3.56;100.00
8575;BME280;4325;42.520;27.448;2023-11-19T02:00:15;100354.53;;;3.61;100.00
8575;BME280;4325;42.520;27.448;2023-11-19T02:02:43;100346.41;;;3.61;100.00
8575;BME280;4325;42.520;27.448;2023-11-19T02:05:11;100358.66;;;3.64;100.00
8575;BME280;4325;42.520;27.448;2023-11-19T02:07:40;100362.19;;;3.64;100.00
8575;BME280;4325;42.520;27.448;2023-11-19T02:10:07;100370.31;;;3.64;100.00
8575;BME280;4325;42.520;27.448;2023-11-19T02:12:38;100379.72;;;3.73;100.00
8575;BME280;4325;42.520;27.448;2023-11-19T02:15:08;100377.47;;;3.70;100.00
8575;BME280;4325;42.520;27.448;2023-11-19T02:17:36;100370.19;;;3.71;100.00
8575;BME280;4325;42.520;27.448;2023-11-19T02:20:03;100378.19;;;3.77;100.00
8575;BME280;4325;42.520;27.448;2023-11-19T02:22:32;100380.44;;;3.80;100.00
8575;BME280;4325;42.520;27.448;2023-11-19T02:25:03;100378.91;;;3.84;100.00
8575;BME280;4325;42.520;27.448;2023-11-19T02:27:43;100379.50;;;3.86;100.00
8575;BME280;4325;42.520;27.448;2023-11-19T02:30:11;100377.94;;;3.90;100.00
8575;BME280;4325;42.520;27.448;2023-11-19T02:32:41;100373.94;;;3.93;100.00
8575;BME280;4325;42.520;27.448;2023-11-19T02:35:08;100366.06;;;3.91;100.00
8575;BME280;4325;42.520;27.448;2023-11-19T02:37:35;100389.38;;;3.92;100.00
8575;BME280;4325;42.520;27.448;2023-11-19T02:40:04;100384.78;;;3.93;100.00
8575;BME280;4325;42.520;27.448;2023-11-19T02:42:34;100381.81;;;3.94;100.00
8575;BME280;4325;42.520;27.448;2023-11-19T02:45:02;100383.00;;;3.98;100.00
8575;BME280;4325;42.520;27.448;2023-11-19T02:47:32;100380.44;;;4.04;100.00
8575;BME280;4325;42.520;27.448;2023-11-19T02:49:59;100402.88;;;4.04;100.00
8575;BME280;4325;42.520;27.448;2023-11-19T02:52:26;100398.78;;;4.01;100.00
8575;BME280;4325;42.520;27.448;2023-11-19T02:54:53;100411.84;;;4.05;100.00
8575;BME280;4325;42.520;27.448;2023-11-19T02:57:21;100440.34;;;4.07;100.00
8575;BME280;4325;42.520;27.448;2023-11-19T02:59:48;100434.47;;;4.10;100.00
8575;BME280;4325;42.520;27.448;2023-11-19T03:02:16;100438.13;;;4.16;100.00
8575;BME280;4325;42.520;27.448;2023-11-19T03:04:43;100456.00;;;4.17;100.00
8575;BME280;4325;42.520;27.448;2023-11-19T03:07:11;100451.16;;;4.19;100.00
8575;BME280;4325;42.520;27.448;2023-11-19T03:09:39;100468.50;;;4.18;100.00
8575;BME280;4325;42.520;27.448;2023-11-19T03:12:07;100482.63;;;4.20;100.00
8575;BME280;4325;42.520;27.448;2023-11-19T03:14:34;100470.25;;;4.24;100.00
8575;BME280;4325;42.520;27.448;2023-11-19T03:17:01;100485.00;;;4.28;100.00
8575;BME280;4325;42.520;27.448;2023-11-19T03:19:30;100488.63;;;4.33;100.00
8575;BME280;4325;42.520;27.448;2023-11-19T03:21:57;100482.53;;;4.38;100.00
8575;BME280;4325;42.520;27.448;2023-11-19T03:24:25;100490.84;;;4.48;100.00
8575;BME280;4325;42.520;27.448;2023-11-19T03:26:51;100499.09;;;4.53;100.00
8575;BME280;4325;42.520;27.448;2023-11-19T03:29:18;100506.06;;;4.49;100.00
8575;BME280;4325;42.520;27.448;2023-11-19T03:31:45;100508.88;;;4.54;100.00
8575;BME280;4325;42.520;27.448;2023-11-19T03:34:12;100486.16;;;4.55;100.00
8575;BME280;4325;42.520;27.448;2023-11-19T03:36:41;100480.91;;;4.65;100.00
8575;BME280;4325;42.520;27.448;2023-11-19T03:39:07;100483.16;;;4.68;100.00
8575;BME280;4325;42.520;27.448;2023-11-19T03:41:34;100496.25;;;4.71;100.00
8575;BME280;4325;42.520;27.448;2023-11-19T03:44:01;100502.84;;;4.75;100.00
8575;BME280;4325;42.520;27.448;2023-11-19T03:46:28;100489.38;;;4.80;100.00
8575;BME280;4325;42.520;27.448;2023-11-19T03:48:56;100500.91;;;4.87;100.00
8575;BME280;4325;42.520;27.448;2023-11-19T03:51:23;100466.63;;;4.81;100.00
8575;BME280;4325;42.520;27.448;2023-11-19T03:53:51;100500.69;;;4.77;100.00
8575;BME280;4325;42.520;27.448;2023-11-19T03:56:18;100500.00;;;4.70;100.00
8575;BME280;4325;42.520;27.448;2023-11-19T03:58:46;100500.97;;;4.64;100.00
8575;BME280;4325;42.520;27.448;2023-11-19T04:01:13;100510.06;;;4.58;100.00
8575;BME280;4325;42.520;27.448;2023-11-19T04:03:40;100519.38;;;4.62;100.00
8575;BME280;4325;42.520;27.448;2023-11-19T04:06:07;100520.19;;;4.62;100.00
8575;BME280;4325;42.520;27.448;2023-11-19T04:08:35;100527.13;;;4.70;100.00
8575;BME280;4325;42.520;27.448;2023-11-19T04:11:04;100515.81;;;4.73;100.00
8575;BME280;4325;42.520;27.448;2023-11-19T04:13:31;100504.50;;;4.76;100.00
8575;BME280;4325;42.520;27.448;2023-11-19T04:15:58;100522.41;;;4.77;100.00
8575;BME280;4325;42.520;27.448;2023-11-19T04:18:25;100526.88;;;4.83;100.00
8575;BME280;4325;42.520;27.448;2023-11-19T04:20:52;100528.44;;;4.79;100.00
8575;BME280;4325;42.520;27.448;2023-11-19T04:23:19;100512.63;;;4.76;100.00
8575;BME280;4325;42.520;27.448;2023-11-19T04:25:45;100529.47;;;4.78;100.00
8575;BME280;4325;42.520;27.448;2023-11-19T04:28:14;100530.78;;;4.76;100.00
8575;BME280;4325;42.520;27.448;2023-11-19T04:30:41;100518.53;;;4.73;100.00
8575;BME280;4325;42.520;27.448;2023-11-19T04:33:08;100504.97;;;4.73;100.00
8575;BME280;4325;42.520;27.448;2023-11-19T04:35:35;100508.75;;;4.72;100.00
8575;BME280;4325;42.520;27.448;2023-11-19T04:38:02;100521.22;;;4.73;100.00
8575;BME280;4325;42.520;27.448;2023-11-19T04:40:29;100538.47;;;4.67;100.00
8575;BME280;4325;42.520;27.448;2023-11-19T04:42:56;100533.16;;;4.72;100.00
8575;BME280;4325;42.520;27.448;2023-11-19T04:45:24;100552.13;;;4.84;100.00
8575;BME280;4325;42.520;27.448;2023-11-19T04:47:51;100568.50;;;4.89;100.00
8575;BME280;4325;42.520;27.448;2023-11-19T04:50:18;100561.78;;;4.91;100.00
8575;BME280;4325;42.520;27.448;2023-11-19T04:52:45;100559.19;;;4.96;100.00
8575;BME280;4325;42.520;27.448;2023-11-19T04:55:12;100562.47;;;4.98;100.00
8575;BME280;4325;42.520;27.448;2023-11-19T04:57:39;100561.38;;;4.99;100.00
8575;BME280;4325;42.520;27.448;2023-11-19T05:00:07;100551.25;;;4.95;100.00
8575;BME280;4325;42.520;27.448;2023-11-19T05:02:38;100549.28;;;4.90;100.00
8575;BME280;4325;42.520;27.448;2023-11-19T05:05:05;100547.84;;;4.88;100.00
8575;BME280;4325;42.520;27.448;2023-11-19T05:07:32;100564.13;;;4.88;100.00
8575;BME280;4325;42.520;27.448;2023-11-19T05:09:59;100566.84;;;4.88;100.00
8575;BME280;4325;42.520;27.448;2023-11-19T05:12:26;100552.69;;;4.86;100.00
8575;BME280;4325;42.520;27.448;2023-11-19T05:14:53;100546.91;;;4.82;100.00
8575;BME280;4325;42.520;27.448;2023-11-19T05:17:20;100536.06;;;4.82;100.00
8575;BME280;4325;42.520;27.448;2023-11-19T05:19:49;100532.31;;;4.83;100.00
8575;BME280;4325;42.520;27.448;2023-11-19T05:22:17;100543.72;;;4.85;100.00
8575;BME280;4325;42.520;27.448;2023-11-19T05:24:46;100545.50;;;4.91;100.00
8575;BME280;4325;42.520;27.448;2023-11-19T05:27:14;100549.28;;;4.90;100.00
8575;BME280;4325;42.520;27.448;2023-11-19T05:29:40;100547.03;;;4.99;100.00
8575;BME280;4325;42.520;27.448;2023-11-19T05:32:08;100532.47;;;5.05;100.00
8575;BME280;4325;42.520;27.448;2023-11-19T05:34:35;100563.75;;;5.07;100.00
8575;BME280;4325;42.520;27.448;2023-11-19T05:37:04;100548.50;;;5.06;100.00
8575;BME280;4325;42.520;27.448;2023-11-19T05:39:31;100561.72;;;5.14;100.00
8575;BME280;4325;42.520;27.448;2023-11-19T05:41:58;100559.56;;;5.16;100.00
8575;BME280;4325;42.520;27.448;2023-11-19T05:44:25;100567.50;;;5.18;100.00
8575;BME280;4325;42.520;27.448;2023-11-19T05:46:52;100565.38;;;5.20;100.00
8575;BME280;4325;42.520;27.448;2023-11-19T05:49:18;100571.13;;;5.23;100.00
8575;BME280;4325;42.520;27.448;2023-11-19T05:51:46;100572.78;;;5.24;100.00
8575;BME280;4325;42.520;27.448;2023-11-19T05:54:14;100587.19;;;5.25;100.00
8575;BME280;4325;42.520;27.448;2023-11-19T05:56:41;100587.75;;;5.27;100.00
8575;BME280;4325;42.520;27.448;2023-11-19T05:59:08;100590.56;;;5.32;100.00
8575;BME280;4325;42.520;27.448;2023-11-19T06:01:41;100573.00;;;5.34;100.00
8575;BME280;4325;42.520;27.448;2023-11-19T06:04:08;100592.91;;;5.40;100.00
8575;BME280;4325;42.520;27.448;2023-11-19T06:06:35;100595.97;;;5.44;100.00
8575;BME280;4325;42.520;27.448;2023-11-19T06:09:02;100604.38;;;5.30;100.00
8575;BME280;4325;42.520;27.448;2023-11-19T06:11:33;100602.16;;;5.27;100.00
8575;BME280;4325;42.520;27.448;2023-11-19T06:14:01;100595.31;;;5.25;100.00
8575;BME280;4325;42.520;27.448;2023-11-19T06:16:31;100608.63;;;5.26;100.00
8575;BME280;4325;42.520;27.448;2023-11-19T06:18:58;100619.16;;;5.23;100.00
8575;BME280;4325;42.520;27.448;2023-11-19T06:21:25;100600.75;;;5.25;100.00
8575;BME280;4325;42.520;27.448;2023-11-19T06:23:52;100612.50;;;5.30;100.00
8575;BME280;4325;42.520;27.448;2023-11-19T06:26:19;100622.78;;;5.28;100.00
8575;BME280;4325;42.520;27.448;2023-11-19T06:28:48;100602.16;;;5.27;100.00
8575;BME280;4325;42.520;27.448;2023-11-19T06:31:15;100608.16;;;5.29;100.00
8575;BME280;4325;42.520;27.448;2023-11-19T06:33:42;100622.22;;;5.26;100.00
8575;BME280;4325;42.520;27.448;2023-11-19T06:36:09;100616.91;;;5.31;100.00
8575;BME280;4325;42.520;27.448;2023-11-19T06:38:36;100629.41;;;5.32;100.00
8575;BME280;4325;42.520;27.448;2023-11-19T06:41:07;100632.72;;;5.34;100.00
8575;BME280;4325;42.520;27.448;2023-11-19T06:43:35;100638.34;;;5.45;100.00
8575;BME280;4325;42.520;27.448;2023-11-19T06:46:04;100638.69;;;5.48;100.00
8575;BME280;4325;42.520;27.448;2023-11-19T06:48:32;100650.00;;;5.57;100.00
8575;BME280;4325;42.520;27.448;2023-11-19T06:50:59;100641.44;;;5.65;100.00
8575;BME280;4325;42.520;27.448;2023-11-19T06:53:26;100654.06;;;5.71;100.00
8575;BME280;4325;42.520;27.448;2023-11-19T06:55:53;100666.09;;;5.75;100.00
8575;BME280;4325;42.520;27.448;2023-11-19T06:58:20;100668.44;;;5.83;100.00
8575;BME280;4325;42.520;27.448;2023-11-19T07:00:47;100664.53;;;5.90;100.00
8575;BME280;4325;42.520;27.448;2023-11-19T07:03:18;100666.44;;;5.90;100.00
8575;BME280;4325;42.520;27.448;2023-11-19T07:05:46;100671.13;;;5.94;100.00
8575;BME280;4325;42.520;27.448;2023-11-19T07:08:13;100667.38;;;5.95;100.00
8575;BME280;4325;42.520;27.448;2023-11-19T07:10:40;100665.69;;;5.94;100.00
8575;BME280;4325;42.520;27.448;2023-11-19T07:13:07;100683.66;;;5.95;100.00
8575;BME280;4325;42.520;27.448;2023-11-19T07:15:33;100687.13;;;5.91;100.00
8575;BME280;4325;42.520;27.448;2023-11-19T07:18:00;100686.41;;;5.84;100.00
8575;BME280;4325;42.520;27.448;2023-11-19T07:20:29;100698.69;;;5.75;100.00
8575;BME280;4325;42.520;27.448;2023-11-19T07:22:56;100682.06;;;5.71;100.00
8575;BME280;4325;42.520;27.448;2023-11-19T07:25:23;100695.78;;;5.65;100.00
8575;BME280;4325;42.520;27.448;2023-11-19T07:27:51;100709.34;;;5.65;100.00
8575;BME280;4325;42.520;27.448;2023-11-19T07:33:04;100721.50;;;5.62;100.00
8575;BME280;4325;42.520;27.448;2023-11-19T07:35:34;100723.31;;;5.57;100.00
8575;BME280;4325;42.520;27.448;2023-11-19T07:38:01;100737.00;;;5.62;100.00
8575;BME280;4325;42.520;27.448;2023-11-19T07:40:28;100742.78;;;5.65;100.00
8575;BME280;4325;42.520;27.448;2023-11-19T07:42:55;100755.75;;;5.75;100.00
8575;BME280;4325;42.520;27.448;2023-11-19T07:45:22;100773.47;;;5.77;100.00
8575;BME280;4325;42.520;27.448;2023-11-19T07:47:49;100759.41;;;5.80;100.00
8575;BME280;4325;42.520;27.448;2023-11-19T07:50:16;100760.38;;;5.86;100.00
8575;BME280;4325;42.520;27.448;2023-11-19T07:52:47;100761.63;;;5.95;100.00
8575;BME280;4325;42.520;27.448;2023-11-19T07:55:14;100761.84;;;6.05;100.00
8575;BME280;4325;42.520;27.448;2023-11-19T07:57:41;100766.09;;;6.13;100.00
8575;BME280;4325;42.520;27.448;2023-11-19T08:00:08;100762.16;;;6.20;100.00
8575;BME280;4325;42.520;27.448;2023-11-19T08:02:37;100744.38;;;6.29;100.00
8575;BME280;4325;42.520;27.448;2023-11-19T08:05:05;100758.56;;;6.31;100.00
8575;BME280;4325;42.520;27.448;2023-11-19T08:07:32;100763.59;;;6.39;100.00
8575;BME280;4325;42.520;27.448;2023-11-19T08:10:00;100761.47;;;6.41;100.00
8575;BME280;4325;42.520;27.448;2023-11-19T08:12:27;100772.75;;;6.50;100.00
8575;BME280;4325;42.520;27.448;2023-11-19T08:14:54;100771.97;;;6.49;100.00
8575;BME280;4325;42.520;27.448;2023-11-19T08:17:21;100781.38;;;6.58;100.00
8575;BME280;4325;42.520;27.448;2023-11-19T08:19:48;100767.88;;;6.63;100.00
8575;BME280;4325;42.520;27.448;2023-11-19T08:22:14;100783.34;;;6.63;99.38
8575;BME280;4325;42.520;27.448;2023-11-19T08:24:42;100782.03;;;6.65;95.74
8575;BME280;4325;42.520;27.448;2023-11-19T08:27:10;100780.91;;;6.78;94.63
8575;BME280;4325;42.520;27.448;2023-11-19T08:29:38;100778.44;;;6.93;94.13
8575;BME280;4325;42.520;27.448;2023-11-19T08:32:06;100775.66;;;7.05;90.24
8575;BME280;4325;42.520;27.448;2023-11-19T08:34:33;100780.50;;;7.03;85.62
8575;BME280;4325;42.520;27.448;2023-11-19T08:37:00;100765.56;;;7.39;100.00
8575;BME280;4325;42.520;27.448;2023-11-19T08:39:27;100764.53;;;7.61;100.00
8575;BME280;4325;42.520;27.448;2023-11-19T08:41:54;100742.59;;;7.51;95.78
8575;BME280;4325;42.520;27.448;2023-11-19T08:44:24;100769.69;;;7.41;93.55
8575;BME280;4325;42.520;27.448;2023-11-19T08:46:51;100749.53;;;7.25;89.33
8575;BME280;4325;42.520;27.448;2023-11-19T08:49:18;100771.44;;;7.14;88.50
8575;BME280;4325;42.520;27.448;2023-11-19T08:51:45;100762.03;;;7.05;88.65
8575;BME280;4325;42.520;27.448;2023-11-19T08:54:12;100764.09;;;6.98;89.86
8575;BME280;4325;42.520;27.448;2023-11-19T08:56:39;100754.19;;;6.92;89.65
8575;BME280;4325;42.520;27.448;2023-11-19T08:59:06;100753.34;;;6.91;89.64
8575;BME280;4325;42.520;27.448;2023-11-19T09:01:35;100750.72;;;6.80;86.72
8575;BME280;4325;42.520;27.448;2023-11-19T09:04:03;100752.94;;;6.83;86.92
8575;BME280;4325;42.520;27.448;2023-11-19T09:06:30;100753.69;;;6.95;87.17
8575;BME280;4325;42.520;27.448;2023-11-19T09:08:57;100763.63;;;7.01;84.77
8575;BME280;4325;42.520;27.448;2023-11-19T09:11:27;100765.72;;;6.99;82.37
8575;BME280;4325;42.520;27.448;2023-11-19T09:13:54;100768.22;;;7.00;85.74
8575;BME280;4325;42.520;27.448;2023-11-19T09:16:21;100748.34;;;7.00;83.46
8575;BME280;4325;42.520;27.448;2023-11-19T09:18:50;100753.53;;;7.01;82.48
8575;BME280;4325;42.520;27.448;2023-11-19T09:21:16;100752.38;;;7.14;86.50
8575;BME280;4325;42.520;27.448;2023-11-19T09:23:45;100736.38;;;7.17;84.71
8575;BME280;4325;42.520;27.448;2023-11-19T09:26:14;100746.44;;;7.17;85.41
8575;BME280;4325;42.520;27.448;2023-11-19T09:28:41;100733.88;;;7.16;82.81
8575;BME280;4325;42.520;27.448;2023-11-19T09:31:15;100730.09;;;7.17;82.73
8575;BME280;4325;42.520;27.448;2023-11-19T09:33:42;100732.56;;;7.18;86.02
8575;BME280;4325;42.520;27.448;2023-11-19T09:36:12;100730.59;;;7.14;85.51
8575;BME280;4325;42.520;27.448;2023-11-19T09:38:40;100726.81;;;7.15;85.84
8575;BME280;4325;42.520;27.448;2023-11-19T09:41:09;100716.41;;;7.12;81.43
8575;BME280;4325;42.520;27.448;2023-11-19T09:43:40;100738.69;;;7.09;80.38
8575;BME280;4325;42.520;27.448;2023-11-19T09:46:10;100727.28;;;7.12;80.45
8575;BME280;4325;42.520;27.448;2023-11-19T09:48:40;100735.53;;;7.17;79.99
8575;BME280;4325;42.520;27.448;2023-11-19T09:51:08;100722.50;;;7.19;78.47
8575;BME280;4325;42.520;27.448;2023-11-19T09:53:37;100738.84;;;7.19;76.57
8575;BME280;4325;42.520;27.448;2023-11-19T09:56:05;100751.88;;;7.17;76.41
8575;BME280;4325;42.520;27.448;2023-11-19T09:58:33;100757.31;;;7.17;76.71
8575;BME280;4325;42.520;27.448;2023-11-19T10:01:00;100775.16;;;7.08;74.31
8575;BME280;4325;42.520;27.448;2023-11-19T10:03:32;100754.34;;;7.02;75.22
8575;BME280;4325;42.520;27.448;2023-11-19T10:06:04;100783.25;;;7.03;74.07
8575;BME280;4325;42.520;27.448;2023-11-19T10:08:32;100783.91;;;7.10;75.55
8575;BME280;4325;42.520;27.448;2023-11-19T10:11:00;100782.31;;;7.14;72.98
8575;BME280;4325;42.520;27.448;2023-11-19T10:13:27;100790.56;;;7.19;71.02
8575;BME280;4325;42.520;27.448;2023-11-19T10:15:55;100794.44;;;7.23;71.22
8575;BME280;4325;42.520;27.448;2023-11-19T10:18:24;100801.72;;;7.34;71.81
8575;BME280;4325;42.520;27.448;2023-11-19T10:20:52;100806.78;;;7.47;68.53
8575;BME280;4325;42.520;27.448;2023-11-19T10:23:20;100810.84;;;7.61;69.73
8575;BME280;4325;42.520;27.448;2023-11-19T10:25:47;100811.03;;;7.76;68.67
8575;BME280;4325;42.520;27.448;2023-11-19T10:28:16;100813.56;;;7.99;67.90
8575;BME280;4325;42.520;27.448;2023-11-19T10:30:43;100810.00;;;8.21;67.63
8575;BME280;4325;42.520;27.448;2023-11-19T10:33:11;100808.25;;;8.31;64.39
8575;BME280;4325;42.520;27.448;2023-11-19T10:35:53;100809.22;;;8.42;63.53
8575;BME280;4325;42.520;27.448;2023-11-19T10:38:20;100793.50;;;8.54;61.71
8575;BME280;4325;42.520;27.448;2023-11-19T10:40:47;100810.22;;;8.89;62.09
8575;BME280;4325;42.520;27.448;2023-11-19T10:43:16;100809.81;;;9.02;61.69
8575;BME280;4325;42.520;27.448;2023-11-19T10:45:44;100806.31;;;9.07;60.84
8575;BME280;4325;42.520;27.448;2023-11-19T10:48:11;100803.00;;;9.05;60.34
8575;BME280;4325;42.520;27.448;2023-11-19T10:50:40;100795.59;;;9.00;61.09
8575;BME280;4325;42.520;27.448;2023-11-19T10:53:08;100787.38;;;8.95;63.04
8575;BME280;4325;42.520;27.448;2023-11-19T10:55:38;100780.84;;;9.01;64.19
8575;BME280;4325;42.520;27.448;2023-11-19T10:58:06;100801.72;;;9.17;63.33
8575;BME280;4325;42.520;27.448;2023-11-19T11:00:38;100800.56;;;9.40;63.96
8575;BME280;4325;42.520;27.448;2023-11-19T11:03:16;100809.00;;;10.27;63.88
8575;BME280;4325;42.520;27.448;2023-11-19T11:05:46;100811.53;;;14.04;52.55
8575;BME280;4325;42.520;27.448;2023-11-19T11:08:14;100810.69;;;18.70;41.14
8575;BME280;4325;42.520;27.448;2023-11-19T11:10:44;100815.47;;;22.41;34.62
8575;BME280;4325;42.520;27.448;2023-11-19T11:13:13;100807.84;;;25.51;29.56
8575;BME280;4325;42.520;27.448;2023-11-19T11:15:42;100812.94;;;27.71;25.84
8575;BME280;4325;42.520;27.448;2023-11-19T11:18:12;100822.75;;;28.75;25.01
8575;BME280;4325;42.520;27.448;2023-11-19T11:20:40;100825.19;;;29.49;23.99
8575;BME280;4325;42.520;27.448;2023-11-19T11:23:30;100837.91;;;30.61;21.60
8575;BME280;4325;42.520;27.448;2023-11-19T11:26:15;100854.75;;;31.31;21.29
8575;BME280;4325;42.520;27.448;2023-11-19T11:28:52;100863.50;;;31.69;19.97
8575;BME280;4325;42.520;27.448;2023-11-19T11:31:31;100871.75;;;30.33;20.75
8575;BME280;4325;42.520;27.448;2023-11-19T11:34:28;100868.56;;;29.20;22.46
8575;BME280;4325;42.520;27.448;2023-11-19T11:37:09;100868.91;;;29.97;21.65
8575;BME280;4325;42.520;27.448;2023-11-19T11:39:40;100860.00;;;31.37;20.55
8575;BME280;4325;42.520;27.448;2023-11-19T11:42:37;100877.97;;;31.88;19.89
8575;BME280;4325;42.520;27.448;2023-11-19T11:45:05;100873.44;;;33.42;19.18
8575;BME280;4325;42.520;27.448;2023-11-19T11:48:11;100866.28;;;34.74;17.72
8575;BME280;4325;42.520;27.448;2023-11-19T11:50:53;100874.63;;;34.85;17.60
8575;BME280;4325;42.520;27.448;2023-11-19T11:53:21;100885.06;;;34.41;17.08
8575;BME280;4325;42.520;27.448;2023-11-19T11:55:56;100893.63;;;34.68;17.51
8575;BME280;4325;42.520;27.448;2023-11-19T11:58:32;100903.13;;;34.05;16.91
8575;BME280;4325;42.520;27.448;2023-11-19T12:01:01;100892.31;;;33.25;17.96
8575;BME280;4325;42.520;27.448;2023-11-19T12:03:31;100894.41;;;33.55;17.49
8575;BME280;4325;42.520;27.448;2023-11-19T12:05:58;100899.03;;;33.75;17.11
8575;BME280;4325;42.520;27.448;2023-11-19T12:08:28;100888.34;;;34.17;17.52
8575;BME280;4325;42.520;27.448;2023-11-19T12:10:56;100895.47;;;35.44;16.59
8575;BME280;4325;42.520;27.448;2023-11-19T12:13:27;100891.41;;;36.36;15.39
8575;BME280;4325;42.520;27.448;2023-11-19T12:16:08;100887.16;;;36.44;15.92
8575;BME280;4325;42.520;27.448;2023-11-19T12:18:39;100875.19;;;35.62;16.16
8575;BME280;4325;42.520;27.448;2023-11-19T12:21:07;100871.81;;;35.67;15.98
8575;BME280;4325;42.520;27.448;2023-11-19T12:23:47;100865.25;;;34.38;16.61
8575;BME280;4325;42.520;27.448;2023-11-19T12:26:41;100854.00;;;33.40;16.92
8575;BME280;4325;42.520;27.448;2023-11-19T12:29:09;100856.66;;;33.24;17.60
8575;BME280;4325;42.520;27.448;2023-11-19T12:31:37;100847.81;;;33.15;17.40
8575;BME280;4325;42.520;27.448;2023-11-19T12:34:09;100854.06;;;32.55;17.53
8575;BME280;4325;42.520;27.448;2023-11-19T12:36:41;100849.69;;;31.85;17.93
8575;BME280;4325;42.520;27.448;2023-11-19T12:39:09;100857.94;;;31.41;19.13
8575;BME280;4325;42.520;27.448;2023-11-19T12:41:52;100856.75;;;31.34;19.34
8575;BME280;4325;42.520;27.448;2023-11-19T12:44:20;100858.75;;;31.45;19.13
8575;BME280;4325;42.520;27.448;2023-11-19T12:46:59;100864.38;;;31.59;18.80
8575;BME280;4325;42.520;27.448;2023-11-19T12:49:28;100874.88;;;32.34;18.27
8575;BME280;4325;42.520;27.448;2023-11-19T12:51:55;100861.41;;;32.45;19.09
8575;BME280;4325;42.520;27.448;2023-11-19T12:54:32;100856.25;;;31.68;20.50
8575;BME280;4325;42.520;27.448;2023-11-19T12:56:59;100859.91;;;32.30;19.69
8575;BME280;4325;42.520;27.448;2023-11-19T12:59:26;100867.91;;;33.31;18.86
8575;BME280;4325;42.520;27.448;2023-11-19T13:01:54;100871.75;;;33.81;18.20
8575;BME280;4325;42.520;27.448;2023-11-19T13:04:21;100877.50;;;32.59;18.66
8575;BME280;4325;42.520;27.448;2023-11-19T13:06:51;100881.91;;;30.97;20.05
8575;BME280;4325;42.520;27.448;2023-11-19T13:09:24;100884.19;;;29.10;21.73
8575;BME280;4325;42.520;27.448;2023-11-19T13:11:51;100880.94;;;26.91;23.82
8575;BME280;4325;42.520;27.448;2023-11-19T13:14:19;100871.72;;;24.42;24.89